Time;durP1;ratioP1;P1;durP2;ratioP2;P2;SDS_P1;SDS_P2;PMS_P1;PMS_P2;Temp;Humidity;BMP_temperature;BMP_pressure;BME280_temperature;BME280_humidity;BME280_pressure;Samples;Min_cycle;Max_cycle;Signal;HPM_P1;HPM_P2
2022/09/25 00:00:28;;;;;;;61.47;5.57;;;;;;;;;;5072612;28;20452;-66
2022/09/25 00:02:56;;;;;;;65.20;6.27;;;;;;;;;;5072542;28;20479;-67
2022/09/25 00:05:23;;;;;;;61.27;6.20;;;;;;;;;;5072542;28;20475;-67
2022/09/25 00:07:51;;;;;;;62.43;6.53;;;;;;;;;;5072472;28;20457;-67
2022/09/25 00:10:18;;;;;;;62.63;6.13;;;;;;;;;;5072394;28;20850;-67
2022/09/25 00:12:45;;;;;;;63.00;6.30;;;;;;;;;;5072651;28;20444;-66
2022/09/25 00:15:12;;;;;;;64.50;7.17;;;;;;;;;;5072341;28;20479;-67
2022/09/25 00:17:39;;;;;;;63.10;7.17;;;;;;;;;;5072461;28;20451;-66
2022/09/25 00:20:08;;;;;;;63.10;6.37;;;;;;;;;;5072035;28;20454;-66
2022/09/25 00:22:35;;;;;;;60.17;5.30;;;;;;;;;;5072123;28;20476;-66
2022/09/25 00:25:02;;;;;;;63.47;6.80;;;;;;;;;;5072390;28;20467;-67
2022/09/25 00:27:29;;;;;;;64.97;7.27;;;;;;;;;;5072360;28;20459;-67
2022/09/25 00:29:58;;;;;;;61.47;6.10;;;;;;;;;;5072070;28;20455;-66
2022/09/25 00:32:25;;;;;;;61.07;6.13;;;;;;;;;;5071687;28;20474;-67
2022/09/25 00:34:52;;;;;;;64.03;6.50;;;;;;;;;;5071737;28;20483;-66
2022/09/25 00:37:21;;;;;;;63.40;7.70;;;;;;;;;;5072074;28;20960;-66
2022/09/25 00:39:48;;;;;;;61.10;5.87;;;;;;;;;;5071919;28;20875;-67
2022/09/25 00:42:19;;;;;;;60.70;5.40;;;;;;;;;;5072133;28;20541;-66
2022/09/25 00:44:56;;;;;;;62.87;6.30;;;;;;;;;;5072247;28;20459;-67
2022/09/25 00:47:41;;;;;;;64.93;6.13;;;;;;;;;;5071938;28;20448;-66
2022/09/25 00:50:15;;;;;;;62.87;6.67;;;;;;;;;;5071936;28;20713;-66
2022/09/25 00:52:43;;;;;;;64.80;7.73;;;;;;;;;;5071928;28;20443;-66
2022/09/25 00:55:11;;;;;;;60.17;4.67;;;;;;;;;;5071914;28;20468;-69
2022/09/25 00:57:39;;;;;;;61.97;5.67;;;;;;;;;;5071916;28;20509;-66
2022/09/25 01:00:09;;;;;;;62.47;6.77;;;;;;;;;;5071387;28;20930;-68
2022/09/25 01:02:38;;;;;;;62.80;7.00;;;;;;;;;;5071868;28;20877;-67
2022/09/25 01:05:07;;;;;;;61.73;5.30;;;;;;;;;;5071899;28;20479;-66
2022/09/25 01:07:35;;;;;;;60.80;5.70;;;;;;;;;;5071740;28;20966;-66
2022/09/25 01:10:07;;;;;;;64.83;6.73;;;;;;;;;;5071421;28;20803;-67
2022/09/25 01:12:37;;;;;;;63.03;6.30;;;;;;;;;;5071631;28;20461;-67
2022/09/25 01:15:06;;;;;;;60.40;5.10;;;;;;;;;;5071856;28;20826;-67
2022/09/25 01:17:36;;;;;;;63.03;6.57;;;;;;;;;;5071604;28;20451;-68
2022/09/25 01:20:09;;;;;;;61.37;6.30;;;;;;;;;;5071348;28;20451;-66
2022/09/25 01:22:44;;;;;;;62.93;6.53;;;;;;;;;;5071581;28;20456;-66
2022/09/25 01:25:16;;;;;;;63.37;7.00;;;;;;;;;;5072051;28;20472;-66
2022/09/25 01:27:49;;;;;;;61.73;6.53;;;;;;;;;;5071601;28;20527;-67
2022/09/25 01:30:19;;;;;;;66.30;6.93;;;;;;;;;;5071411;28;20448;-66
2022/09/25 01:32:53;;;;;;;61.77;6.10;;;;;;;;;;5071437;28;20491;-67
2022/09/25 01:35:26;;;;;;;60.67;6.13;;;;;;;;;;5071251;28;20481;-67
2022/09/25 01:37:56;;;;;;;62.87;6.70;;;;;;;;;;5071783;28;20796;-67
2022/09/25 01:40:25;;;;;;;61.57;5.23;;;;;;;;;;5071352;28;20802;-67
2022/09/25 01:42:54;;;;;;;63.13;5.80;;;;;;;;;;5071428;28;20495;-66
2022/09/25 01:45:26;;;;;;;61.67;5.90;;;;;;;;;;5073836;28;20985;-68
2022/09/25 01:47:56;;;;;;;62.30;6.40;;;;;;;;;;5073347;28;20456;-68
2022/09/25 01:50:26;;;;;;;63.70;6.40;;;;;;;;;;5075049;28;20457;-67
2022/09/25 01:52:54;;;;;;;63.60;7.40;;;;;;;;;;5075230;28;20448;-67
2022/09/25 01:55:27;;;;;;;62.70;7.40;;;;;;;;;;5074955;28;20476;-67
2022/09/25 01:57:57;;;;;;;63.30;5.60;;;;;;;;;;5075307;28;20445;-67
2022/09/25 02:00:26;;;;;;;63.53;5.57;;;;;;;;;;5074889;28;20454;-67
2022/09/25 02:02:55;;;;;;;61.97;6.53;;;;;;;;;;5074799;28;20449;-67
2022/09/25 02:05:26;;;;;;;61.17;6.40;;;;;;;;;;5074777;28;20983;-66
2022/09/25 02:07:55;;;;;;;63.30;6.03;;;;;;;;;;5074855;28;20452;-66
2022/09/25 02:10:26;;;;;;;62.63;6.60;;;;;;;;;;5074755;28;20447;-68
2022/09/25 02:12:54;;;;;;;62.53;6.03;;;;;;;;;;5074947;28;20459;-67
2022/09/25 02:15:24;;;;;;;62.70;5.47;;;;;;;;;;5074738;28;20468;-66
2022/09/25 02:20:41;;;;;;;62.77;5.70;;;;;;;;;;5074468;28;20451;-67
2022/09/25 02:23:11;;;;;;;61.97;6.10;;;;;;;;;;5074735;28;20481;-67
2022/09/25 02:25:40;;;;;;;61.40;5.33;;;;;;;;;;5074530;28;20468;-67
2022/09/25 02:28:08;;;;;;;60.70;5.87;;;;;;;;;;5074442;28;20456;-67
2022/09/25 02:30:35;;;;;;;64.60;7.20;;;;;;;;;;5074140;28;20454;-68
2022/09/25 02:33:03;;;;;;;61.57;5.30;;;;;;;;;;5074615;28;20464;-67
2022/09/25 02:35:30;;;;;;;70.93;7.83;;;;;;;;;;5074231;28;20484;-67
2022/09/25 02:37:58;;;;;;;62.53;6.00;;;;;;;;;;5074568;28;20443;-66
2022/09/25 02:40:29;;;;;;;60.63;5.50;;;;;;;;;;5074376;28;20457;-67
2022/09/25 02:43:00;;;;;;;63.10;5.70;;;;;;;;;;5074291;28;20452;-67
2022/09/25 02:45:34;;;;;;;64.57;7.60;;;;;;;;;;5074005;28;20469;-67
2022/09/25 02:48:07;;;;;;;60.17;4.90;;;;;;;;;;5074076;28;20444;-67
2022/09/25 02:50:37;;;;;;;61.77;6.13;;;;;;;;;;5074121;28;20927;-67
2022/09/25 02:53:08;;;;;;;61.27;5.87;;;;;;;;;;5074143;28;20454;-67
2022/09/25 02:55:39;;;;;;;59.83;5.47;;;;;;;;;;5073122;28;20789;-67
2022/09/25 02:58:09;;;;;;;60.50;5.40;;;;;;;;;;5074115;28;20455;-67
2022/09/25 03:00:37;;;;;;;61.23;5.40;;;;;;;;;;5073611;28;20443;-67
2022/09/25 03:03:07;;;;;;;61.67;5.73;;;;;;;;;;5073896;28;20459;-66
2022/09/25 03:05:35;;;;;;;63.27;6.70;;;;;;;;;;5073805;28;20490;-67
2022/09/25 03:10:47;;;;;;;64.57;5.30;;;;;;;;;;5073549;28;20419;-67
2022/09/25 03:13:15;;;;;;;60.03;5.00;;;;;;;;;;5073848;28;20455;-66
2022/09/25 03:15:44;;;;;;;61.47;5.50;;;;;;;;;;5073677;28;20841;-68
2022/09/25 03:18:12;;;;;;;61.87;5.27;;;;;;;;;;5073614;28;20483;-67
2022/09/25 03:20:39;;;;;;;61.70;5.90;;;;;;;;;;5073227;28;20447;-66
2022/09/25 03:23:07;;;;;;;60.77;4.53;;;;;;;;;;5073587;28;20444;-67
2022/09/25 03:25:34;;;;;;;61.67;5.80;;;;;;;;;;5073528;28;20485;-67
2022/09/25 03:28:01;;;;;;;61.90;5.87;;;;;;;;;;5073274;28;20454;-67
2022/09/25 03:30:29;;;;;;;63.83;7.20;;;;;;;;;;5073100;28;20451;-68
2022/09/25 03:32:56;;;;;;;63.00;6.23;;;;;;;;;;5073348;28;20447;-66
2022/09/25 03:35:25;;;;;;;59.67;4.80;;;;;;;;;;5073059;28;20476;-66
2022/09/25 03:37:52;;;;;;;59.60;4.30;;;;;;;;;;5073374;28;20546;-66
2022/09/25 03:40:20;;;;;;;63.00;5.70;;;;;;;;;;5072722;28;20454;-66
2022/09/25 03:42:47;;;;;;;62.13;5.53;;;;;;;;;;5073164;28;20447;-68
2022/09/25 03:45:14;;;;;;;65.30;7.20;;;;;;;;;;5072875;28;20568;-66
2022/09/25 03:47:41;;;;;;;62.77;5.87;;;;;;;;;;5072944;28;20979;-67
2022/09/25 03:50:09;;;;;;;61.13;5.50;;;;;;;;;;5072777;28;20444;-67
2022/09/25 03:52:38;;;;;;;62.27;6.07;;;;;;;;;;5072871;28;20448;-66
2022/09/25 03:55:05;;;;;;;59.27;4.50;;;;;;;;;;5072937;28;20465;-67
2022/09/25 03:57:32;;;;;;;61.90;5.43;;;;;;;;;;5072830;28;20875;-63
2022/09/25 04:00:02;;;;;;;61.47;5.83;;;;;;;;;;5072319;28;20542;-64
2022/09/25 04:02:29;;;;;;;62.30;6.13;;;;;;;;;;5072708;28;20942;-64
2022/09/25 04:04:57;;;;;;;65.33;7.10;;;;;;;;;;5072700;28;20493;-63
2022/09/25 04:07:24;;;;;;;60.77;5.57;;;;;;;;;;5072470;28;20452;-65
2022/09/25 04:09:53;;;;;;;61.87;5.43;;;;;;;;;;5072390;28;20820;-64
2022/09/25 04:12:20;;;;;;;60.90;5.50;;;;;;;;;;5072624;28;20881;-64
2022/09/25 04:14:47;;;;;;;61.67;5.87;;;;;;;;;;5072302;28;21014;-64
2022/09/25 04:17:14;;;;;;;60.43;5.30;;;;;;;;;;5072436;28;20466;-65
2022/09/25 04:19:41;;;;;;;61.07;5.03;;;;;;;;;;5072272;28;20447;-64
2022/09/25 04:22:08;;;;;;;61.87;4.80;;;;;;;;;;5072536;28;20452;-65
2022/09/25 04:24:51;;;;;;;65.37;6.30;;;;;;;;;;5072206;28;20483;-63
2022/09/25 04:27:21;;;;;;;60.43;5.00;;;;;;;;;;5072231;28;20458;-67
2022/09/25 04:29:48;;;;;;;62.03;6.07;;;;;;;;;;5072305;28;20450;-64
2022/09/25 04:35:01;;;;;;;60.40;5.10;;;;;;;;;;5072386;28;20541;-66
2022/09/25 04:37:28;;;;;;;63.50;7.07;;;;;;;;;;5072125;28;20447;-67
2022/09/25 04:39:55;;;;;;;62.33;5.50;;;;;;;;;;5071706;28;20452;-67
2022/09/25 04:42:24;;;;;;;61.97;4.87;;;;;;;;;;5072201;28;20443;-69
2022/09/25 04:44:53;;;;;;;60.77;5.13;;;;;;;;;;5071832;28;20487;-66
2022/09/25 04:47:20;;;;;;;60.33;5.23;;;;;;;;;;5072154;28;20521;-66
2022/09/25 04:49:47;;;;;;;60.30;4.40;;;;;;;;;;5071591;28;20455;-67
2022/09/25 04:52:14;;;;;;;60.17;4.67;;;;;;;;;;5071925;28;20452;-66
2022/09/25 04:54:42;;;;;;;62.47;6.20;;;;;;;;;;5072134;28;20521;-66
2022/09/25 04:57:09;;;;;;;64.97;6.70;;;;;;;;;;5071830;28;20497;-67
2022/09/25 04:59:38;;;;;;;60.53;5.13;;;;;;;;;;5071506;28;20456;-66
2022/09/25 05:02:05;;;;;;;61.70;5.60;;;;;;;;;;5071738;28;20945;-67
2022/09/25 05:04:32;;;;;;;67.10;4.87;;;;;;;;;;5071702;28;20487;-66
2022/09/25 05:07:00;;;;;;;61.07;5.20;;;;;;;;;;5071742;28;20451;-67
2022/09/25 05:09:27;;;;;;;60.97;4.63;;;;;;;;;;5071613;28;20444;-67
2022/09/25 05:11:54;;;;;;;61.63;5.87;;;;;;;;;;5071687;28;21057;-66
2022/09/25 05:14:21;;;;;;;60.80;4.70;;;;;;;;;;5071728;28;20543;-66
2022/09/25 05:16:50;;;;;;;64.57;5.20;;;;;;;;;;5071764;28;20453;-66
2022/09/25 05:19:17;;;;;;;63.17;5.53;;;;;;;;;;5072373;28;20456;-66
2022/09/25 05:21:44;;;;;;;67.30;6.00;;;;;;;;;;5075721;28;20455;-66
2022/09/25 05:24:12;;;;;;;60.97;5.70;;;;;;;;;;5075796;28;20491;-66
2022/09/25 05:26:40;;;;;;;61.53;5.87;;;;;;;;;;5075852;28;20867;-66
2022/09/25 05:29:07;;;;;;;64.70;5.00;;;;;;;;;;5075522;28;20444;-66
2022/09/25 05:31:35;;;;;;;61.60;5.40;;;;;;;;;;5075688;28;20447;-66
2022/09/25 05:34:03;;;;;;;61.57;5.27;;;;;;;;;;5075246;28;20475;-67
2022/09/25 05:36:30;;;;;;;60.70;5.20;;;;;;;;;;5075713;28;20447;-66
2022/09/25 05:38:59;;;;;;;61.60;5.60;;;;;;;;;;5075323;28;20454;-66
2022/09/25 05:41:26;;;;;;;61.47;4.70;;;;;;;;;;5075529;28;20447;-67
2022/09/25 05:43:54;;;;;;;61.43;5.20;;;;;;;;;;5075282;28;20450;-63
2022/09/25 05:46:21;;;;;;;60.53;4.80;;;;;;;;;;5075308;28;20463;-67
2022/09/25 05:48:48;;;;;;;62.90;5.53;;;;;;;;;;5074914;28;20525;-66
2022/09/25 05:51:16;;;;;;;60.57;4.73;;;;;;;;;;5075468;28;20447;-66
2022/09/25 05:53:43;;;;;;;61.80;6.63;;;;;;;;;;5075278;28;20803;-66
2022/09/25 05:56:11;;;;;;;61.00;5.13;;;;;;;;;;5075153;28;20451;-67
2022/09/25 05:58:38;;;;;;;61.80;5.20;;;;;;;;;;5074771;28;20447;-66
2022/09/25 06:01:06;;;;;;;64.07;6.73;;;;;;;;;;5074977;28;20454;-67
2022/09/25 06:03:33;;;;;;;60.83;5.40;;;;;;;;;;5075212;28;20512;-67
2022/09/25 06:06:00;;;;;;;59.90;4.40;;;;;;;;;;5074973;28;20509;-66
2022/09/25 06:08:30;;;;;;;63.20;5.90;;;;;;;;;;5074901;28;20450;-69
2022/09/25 06:10:59;;;;;;;60.83;5.83;;;;;;;;;;5074843;28;20454;-67
2022/09/25 06:13:26;;;;;;;59.83;5.00;;;;;;;;;;5074859;28;20458;-66
2022/09/25 06:15:53;;;;;;;60.30;4.30;;;;;;;;;;5074571;28;20467;-66
2022/09/25 06:18:21;;;;;;;61.93;5.33;;;;;;;;;;5074564;28;20451;-66
2022/09/25 06:20:49;;;;;;;59.80;5.17;;;;;;;;;;5074600;28;20455;-66
2022/09/25 06:23:16;;;;;;;61.10;4.67;;;;;;;;;;5074814;28;20453;-66
2022/09/25 06:25:45;;;;;;;62.47;5.00;;;;;;;;;;5074485;28;20537;-66
2022/09/25 06:28:12;;;;;;;61.30;4.83;;;;;;;;;;5074979;28;20447;-66
2022/09/25 06:30:40;;;;;;;61.60;5.40;;;;;;;;;;5074316;28;20449;-67
2022/09/25 06:33:08;;;;;;;60.43;5.10;;;;;;;;;;5074643;28;20451;-67
2022/09/25 06:35:36;;;;;;;59.40;4.30;;;;;;;;;;5074224;28;20490;-68
2022/09/25 06:38:05;;;;;;;60.70;5.40;;;;;;;;;;5074369;28;20447;-66
2022/09/25 06:40:33;;;;;;;63.27;5.93;;;;;;;;;;5074098;28;20960;-66
2022/09/25 06:43:02;;;;;;;60.90;4.80;;;;;;;;;;5074201;28;20445;-67
2022/09/25 06:45:31;;;;;;;62.27;5.20;;;;;;;;;;5074102;28;20499;-66
2022/09/25 06:48:01;;;;;;;60.77;5.10;;;;;;;;;;5074504;28;20458;-66
2022/09/25 06:50:30;;;;;;;61.40;5.40;;;;;;;;;;5073882;28;20451;-68
2022/09/25 06:52:58;;;;;;;64.30;5.23;;;;;;;;;;5074157;28;20548;-66
2022/09/25 06:55:25;;;;;;;61.80;5.87;;;;;;;;;;5073874;28;20509;-66
2022/09/25 06:57:52;;;;;;;61.47;5.47;;;;;;;;;;5074247;28;20447;-68
2022/09/25 07:00:21;;;;;;;61.10;4.77;;;;;;;;;;5073815;28;20455;-67
2022/09/25 07:05:33;;;;;;;64.47;6.50;;;;;;;;;;5073732;28;20526;-67
2022/09/25 07:08:00;;;;;;;62.57;5.93;;;;;;;;;;5073693;28;20448;-67
2022/09/25 07:10:27;;;;;;;61.03;5.43;;;;;;;;;;5073456;28;20458;-67
2022/09/25 07:12:54;;;;;;;63.57;7.77;;;;;;;;;;5073953;28;20615;-67
2022/09/25 07:15:23;;;;;;;62.60;6.80;;;;;;;;;;5073557;28;20475;-67
2022/09/25 07:17:50;;;;;;;62.07;5.40;;;;;;;;;;5073733;28;20451;-67
2022/09/25 07:20:17;;;;;;;60.57;6.10;;;;;;;;;;5073133;28;20547;-67
2022/09/25 07:22:44;;;;;;;64.20;6.90;;;;;;;;;;5073445;28;20945;-67
2022/09/25 07:25:13;;;;;;;59.60;4.40;;;;;;;;;;5073308;28;20484;-67
2022/09/25 07:27:40;;;;;;;61.30;5.63;;;;;;;;;;5073546;28;20461;-66
2022/09/25 07:30:08;;;;;;;66.57;6.60;;;;;;;;;;5073034;28;20457;-66
2022/09/25 07:32:36;;;;;;;62.00;5.90;;;;;;;;;;5073332;28;20462;-67
2022/09/25 07:35:04;;;;;;;60.60;5.17;;;;;;;;;;5072973;28;20478;-66
2022/09/25 07:37:31;;;;;;;61.00;5.37;;;;;;;;;;5073341;28;20449;-66
2022/09/25 07:39:58;;;;;;;62.20;5.30;;;;;;;;;;5072878;28;20820;-66
2022/09/25 07:42:25;;;;;;;61.00;6.03;;;;;;;;;;5072623;28;20461;-66
2022/09/25 07:44:52;;;;;;;61.57;5.93;;;;;;;;;;5072841;28;20485;-67
2022/09/25 07:47:19;;;;;;;63.20;5.60;;;;;;;;;;5072949;28;20826;-66
2022/09/25 07:49:48;;;;;;;60.60;5.90;;;;;;;;;;5072856;28;20462;-66
2022/09/25 07:52:15;;;;;;;63.00;6.10;;;;;;;;;;5073138;28;20454;-65
2022/09/25 07:54:42;;;;;;;65.17;7.27;;;;;;;;;;5072807;28;20470;-65
2022/09/25 07:57:12;;;;;;;61.20;5.20;;;;;;;;;;5072745;28;20947;-64
2022/09/25 07:59:39;;;;;;;62.83;6.10;;;;;;;;;;5072349;28;20454;-64
2022/09/25 08:02:06;;;;;;;62.37;6.80;;;;;;;;;;5073185;28;20856;-65
2022/09/25 08:04:33;;;;;;;61.67;5.70;;;;;;;;;;5072755;28;20470;-65
2022/09/25 08:07:01;;;;;;;62.97;6.13;;;;;;;;;;5072612;28;20450;-65
2022/09/25 08:09:28;;;;;;;62.73;6.00;;;;;;;;;;5072245;28;20442;-66
2022/09/25 08:11:56;;;;;;;62.60;5.43;;;;;;;;;;5072635;28;20448;-64
2022/09/25 08:14:24;;;;;;;62.07;5.00;;;;;;;;;;5072325;28;20978;-65
2022/09/25 08:16:54;;;;;;;62.97;6.63;;;;;;;;;;5072394;28;20454;-66
2022/09/25 08:19:22;;;;;;;60.30;4.57;;;;;;;;;;5072247;28;20544;-66
2022/09/25 08:21:49;;;;;;;60.30;5.03;;;;;;;;;;5072305;28;21041;-67
2022/09/25 08:24:18;;;;;;;59.77;4.50;;;;;;;;;;5072311;28;20462;-68
2022/09/25 08:26:46;;;;;;;62.20;5.30;;;;;;;;;;5072099;28;21011;-67
2022/09/25 08:29:13;;;;;;;59.80;4.23;;;;;;;;;;5071862;28;20476;-67
2022/09/25 08:31:40;;;;;;;60.10;4.20;;;;;;;;;;5072357;28;20446;-67
2022/09/25 08:34:09;;;;;;;59.73;3.53;;;;;;;;;;5072164;28;20487;-66
2022/09/25 08:36:36;;;;;;;59.50;4.50;;;;;;;;;;5072272;28;20445;-66
2022/09/25 08:39:03;;;;;;;59.30;3.80;;;;;;;;;;5071680;28;20454;-66
2022/09/25 08:41:32;;;;;;;59.77;4.80;;;;;;;;;;5072017;28;20447;-67
2022/09/25 08:44:02;;;;;;;61.57;4.90;;;;;;;;;;5072168;28;20834;-66
2022/09/25 08:49:20;;;;;;;61.33;6.50;;;;;;;;;;5071682;28;20426;-65
2022/09/25 08:51:49;;;;;;;60.70;5.30;;;;;;;;;;5071898;28;20579;-65
2022/09/25 08:54:19;;;;;;;60.10;4.87;;;;;;;;;;5070919;28;21028;-63
2022/09/25 08:56:49;;;;;;;60.30;4.80;;;;;;;;;;5072118;28;20446;-64
2022/09/25 08:59:22;;;;;;;60.70;4.80;;;;;;;;;;5071520;28;20992;-65
2022/09/25 09:01:52;;;;;;;60.87;4.83;;;;;;;;;;5071964;28;20557;-64
2022/09/25 09:04:20;;;;;;;60.27;4.30;;;;;;;;;;5071774;28;20470;-64
2022/09/25 09:06:49;;;;;;;61.20;4.23;;;;;;;;;;5071610;28;20486;-64
2022/09/25 09:09:19;;;;;;;60.87;5.00;;;;;;;;;;5071395;28;20973;-65
2022/09/25 09:11:49;;;;;;;59.47;4.30;;;;;;;;;;5071734;28;20477;-64
2022/09/25 09:14:17;;;;;;;59.50;4.07;;;;;;;;;;5071614;28;20990;-64
2022/09/25 09:16:46;;;;;;;60.17;5.43;;;;;;;;;;5071694;28;20446;-64
2022/09/25 09:19:13;;;;;;;60.90;5.73;;;;;;;;;;5071235;28;20454;-65
2022/09/25 09:21:45;;;;;;;61.37;5.27;;;;;;;;;;5071777;28;20443;-65
2022/09/25 09:24:15;;;;;;;62.33;5.10;;;;;;;;;;5071503;28;20471;-64
2022/09/25 09:26:54;;;;;;;59.73;4.30;;;;;;;;;;5071562;28;20487;-65
2022/09/25 09:29:28;;;;;;;60.20;4.13;;;;;;;;;;5071168;28;20447;-64
2022/09/25 09:32:00;;;;;;;60.73;4.67;;;;;;;;;;5071763;28;20457;-65
2022/09/25 09:34:33;;;;;;;61.00;5.30;;;;;;;;;;5071379;28;20567;-64
2022/09/25 09:37:03;;;;;;;61.07;4.83;;;;;;;;;;5071587;28;20530;-64
2022/09/25 09:39:35;;;;;;;60.77;4.30;;;;;;;;;;5071134;28;20458;-64
2022/09/25 09:42:08;;;;;;;60.60;4.37;;;;;;;;;;5071343;28;20458;-64
2022/09/25 09:44:40;;;;;;;61.50;6.00;;;;;;;;;;5071517;28;20471;-66
2022/09/25 09:47:18;;;;;;;63.00;5.73;;;;;;;;;;5071329;28;20490;-64
2022/09/25 09:49:49;;;;;;;63.00;5.10;;;;;;;;;;5071004;28;20451;-66
2022/09/25 09:52:18;;;;;;;60.80;4.70;;;;;;;;;;5071263;28;20457;-65
2022/09/25 09:54:48;;;;;;;59.90;4.90;;;;;;;;;;5071200;28;20554;-66
2022/09/25 09:57:18;;;;;;;60.57;4.80;;;;;;;;;;5071488;28;20458;-64
2022/09/25 09:59:47;;;;;;;59.73;3.97;;;;;;;;;;5071052;28;20455;-64
2022/09/25 10:02:19;;;;;;;59.60;4.67;;;;;;;;;;5071207;28;20452;-65
2022/09/25 10:04:46;;;;;;;71.93;5.17;;;;;;;;;;5071230;28;20470;-64
2022/09/25 10:07:17;;;;;;;60.83;5.03;;;;;;;;;;5074703;28;20493;-66
2022/09/25 10:09:44;;;;;;;62.70;5.20;;;;;;;;;;5074565;28;20447;-65
2022/09/25 10:12:14;;;;;;;62.13;5.20;;;;;;;;;;5074788;28;20455;-64
2022/09/25 10:14:45;;;;;;;60.27;4.70;;;;;;;;;;5074829;28;20524;-64
2022/09/25 10:17:12;;;;;;;60.20;4.93;;;;;;;;;;5075003;28;20786;-65
2022/09/25 10:19:46;;;;;;;60.03;4.43;;;;;;;;;;5074336;28;20458;-64
2022/09/25 10:22:15;;;;;;;60.37;5.00;;;;;;;;;;5074878;28;20447;-65
2022/09/25 10:24:50;;;;;;;60.13;4.77;;;;;;;;;;5074744;28;20516;-64
2022/09/25 10:27:22;;;;;;;61.57;4.57;;;;;;;;;;5074625;28;20519;-64
2022/09/25 10:30:01;;;;;;;60.70;4.80;;;;;;;;;;5074159;28;20446;-65
2022/09/25 10:32:28;;;;;;;61.03;5.40;;;;;;;;;;5074674;28;20443;-65
2022/09/25 10:34:55;;;;;;;59.73;4.37;;;;;;;;;;5074274;28;20471;-65
2022/09/25 10:37:23;;;;;;;61.90;5.73;;;;;;;;;;5074382;28;20443;-65
2022/09/25 10:40:00;;;;;;;65.03;6.20;;;;;;;;;;5074117;28;20475;-66
2022/09/25 10:42:32;;;;;;;60.93;5.17;;;;;;;;;;5074751;28;20946;-64
2022/09/25 10:45:00;;;;;;;61.10;5.10;;;;;;;;;;5074124;28;21001;-64
2022/09/25 10:50:17;;;;;;;62.20;4.63;;;;;;;;;;5073770;28;20419;-65
2022/09/25 10:52:50;;;;;;;61.53;5.97;;;;;;;;;;5074005;28;20474;-65
2022/09/25 10:55:24;;;;;;;63.93;5.63;;;;;;;;;;5073882;28;20472;-65
2022/09/25 10:57:54;;;;;;;60.70;5.57;;;;;;;;;;5074211;28;20462;-65
2022/09/25 11:00:24;;;;;;;62.10;5.33;;;;;;;;;;5073810;28;20546;-65
2022/09/25 11:02:53;;;;;;;61.17;5.60;;;;;;;;;;5073995;28;20878;-65
2022/09/25 11:05:23;;;;;;;60.07;5.40;;;;;;;;;;5073686;28;20463;-64
2022/09/25 11:07:53;;;;;;;61.30;5.37;;;;;;;;;;5074042;28;20479;-64
2022/09/25 11:10:21;;;;;;;59.60;4.17;;;;;;;;;;5073689;28;20447;-64
2022/09/25 11:12:49;;;;;;;60.57;4.67;;;;;;;;;;5073858;28;20497;-64
2022/09/25 11:15:19;;;;;;;64.53;5.10;;;;;;;;;;5073602;28;20459;-65
2022/09/25 11:17:48;;;;;;;65.30;6.33;;;;;;;;;;5073051;28;20442;-64
2022/09/25 11:20:28;;;;;;;62.60;5.70;;;;;;;;;;5073625;28;20451;-64
2022/09/25 11:22:58;;;;;;;61.10;5.13;;;;;;;;;;5073944;28;20451;-64
2022/09/25 11:25:27;;;;;;;60.00;5.20;;;;;;;;;;5073500;28;20482;-63
2022/09/25 11:27:56;;;;;;;60.73;5.57;;;;;;;;;;5073382;28;20479;-65
2022/09/25 11:30:24;;;;;;;64.10;6.30;;;;;;;;;;5073011;28;20451;-65
2022/09/25 11:32:58;;;;;;;64.53;5.90;;;;;;;;;;5073608;28;20443;-64
2022/09/25 11:35:31;;;;;;;61.40;6.13;;;;;;;;;;5073285;28;21001;-67
2022/09/25 11:38:02;;;;;;;61.77;5.83;;;;;;;;;;5073611;28;20465;-64
2022/09/25 11:43:38;;;;;;;60.87;4.93;;;;;;;;;;5073251;28;20769;-64
2022/09/25 11:46:13;;;;;;;61.77;5.80;;;;;;;;;;5073167;28;20488;-65
2022/09/25 11:48:46;;;;;;;64.83;6.60;;;;;;;;;;5072698;28;20460;-66
2022/09/25 11:51:21;;;;;;;62.80;5.77;;;;;;;;;;5072828;28;20473;-65
2022/09/25 11:53:54;;;;;;;60.77;5.30;;;;;;;;;;5072853;28;20984;-67
2022/09/25 11:56:25;;;;;;;62.73;6.63;;;;;;;;;;5073052;28;20809;-65
2022/09/25 11:59:03;;;;;;;61.60;5.60;;;;;;;;;;5072510;28;20599;-64
2022/09/25 12:01:33;;;;;;;62.40;6.20;;;;;;;;;;5072691;28;20795;-65
2022/09/25 12:04:08;;;;;;;63.43;5.80;;;;;;;;;;5072835;28;20474;-65
2022/09/25 12:06:52;;;;;;;62.57;5.97;;;;;;;;;;5072552;28;20485;-64
2022/09/25 12:09:24;;;;;;;62.00;5.73;;;;;;;;;;5070738;28;20947;-65
2022/09/25 12:11:57;;;;;;;64.27;6.90;;;;;;;;;;5073072;28;20457;-65
2022/09/25 12:14:27;;;;;;;65.43;6.20;;;;;;;;;;5072444;28;21120;-65
2022/09/25 12:16:58;;;;;;;64.30;6.40;;;;;;;;;;5072727;28;20784;-65
2022/09/25 12:19:32;;;;;;;65.33;5.93;;;;;;;;;;5072143;28;20836;-66
2022/09/25 12:22:03;;;;;;;64.30;6.93;;;;;;;;;;5072535;28;20448;-64
2022/09/25 12:24:35;;;;;;;62.17;5.63;;;;;;;;;;5072157;28;20471;-64
2022/09/25 12:27:07;;;;;;;62.97;5.93;;;;;;;;;;5072415;28;20487;-65
2022/09/25 12:29:52;;;;;;;61.30;5.37;;;;;;;;;;5071893;28;20454;-65
2022/09/25 12:32:26;;;;;;;60.80;4.93;;;;;;;;;;5072095;28;20450;-67
2022/09/25 12:35:02;;;;;;;61.97;6.47;;;;;;;;;;5071896;28;20497;-64
2022/09/25 12:37:32;;;;;;;63.70;5.80;;;;;;;;;;5072372;28;20443;-64
2022/09/25 12:40:01;;;;;;;64.10;5.87;;;;;;;;;;5071947;28;20458;-67
2022/09/25 12:42:34;;;;;;;62.20;6.27;;;;;;;;;;5072105;28;20497;-65
2022/09/25 12:45:04;;;;;;;60.83;5.77;;;;;;;;;;5071966;28;20468;-65
2022/09/25 12:47:34;;;;;;;60.90;5.10;;;;;;;;;;5071780;28;20526;-65
2022/09/25 12:50:04;;;;;;;61.83;5.70;;;;;;;;;;5071860;28;20813;-67
2022/09/25 12:52:36;;;;;;;61.40;5.77;;;;;;;;;;5072061;28;20443;-64
2022/09/25 12:55:06;;;;;;;59.93;4.30;;;;;;;;;;5072039;28;20548;-65
2022/09/25 12:57:37;;;;;;;62.90;5.77;;;;;;;;;;5071891;28;20440;-64
2022/09/25 13:00:05;;;;;;;59.53;4.63;;;;;;;;;;5071470;28;20537;-68
2022/09/25 13:02:36;;;;;;;60.90;5.07;;;;;;;;;;5071936;28;20504;-65
2022/09/25 13:05:06;;;;;;;62.00;4.57;;;;;;;;;;5071857;28;20471;-65
2022/09/25 13:07:37;;;;;;;59.00;3.90;;;;;;;;;;5071769;28;20483;-65
2022/09/25 13:10:09;;;;;;;58.70;3.70;;;;;;;;;;5071483;28;20821;-65
2022/09/25 13:12:37;;;;;;;58.50;3.30;;;;;;;;;;5071687;28;20820;-65
2022/09/25 13:15:08;;;;;;;59.00;3.33;;;;;;;;;;5071620;28;21010;-65
2022/09/25 13:17:35;;;;;;;58.90;3.70;;;;;;;;;;5071932;28;20475;-65
2022/09/25 13:20:19;;;;;;;59.23;3.30;;;;;;;;;;5071618;28;20927;-67
2022/09/25 13:22:47;;;;;;;58.87;3.57;;;;;;;;;;5059299;28;20485;-65
2022/09/25 13:25:17;;;;;;;58.33;3.30;;;;;;;;;;5071707;28;20459;-67
2022/09/25 13:27:45;;;;;;;58.70;3.50;;;;;;;;;;5071612;28;20493;-64
2022/09/25 13:30:21;;;;;;;58.67;3.40;;;;;;;;;;5071307;28;20454;-67
2022/09/25 13:32:49;;;;;;;59.80;3.50;;;;;;;;;;5071615;28;20446;-65
2022/09/25 13:35:17;;;;;;;59.87;3.73;;;;;;;;;;5071261;28;20476;-65
2022/09/25 13:37:45;;;;;;;58.40;3.33;;;;;;;;;;5071730;28;20450;-64
2022/09/25 13:43:20;;;;;;;57.97;3.17;;;;;;;;;;5075551;28;20419;-65
2022/09/25 13:45:47;;;;;;;58.50;3.20;;;;;;;;;;5075177;28;20528;-67
2022/09/25 13:48:34;;;;;;;58.10;3.40;;;;;;;;;;5075368;28;20901;-65
2022/09/25 13:51:16;;;;;;;58.87;3.60;;;;;;;;;;5075392;28;20447;-65
2022/09/25 13:53:52;;;;;;;58.97;3.27;;;;;;;;;;5075061;28;20447;-66
2022/09/25 13:56:24;;;;;;;59.37;3.50;;;;;;;;;;5075074;28;20494;-68
2022/09/25 13:59:08;;;;;;;58.97;2.97;;;;;;;;;;5074993;28;20439;-66
2022/09/25 14:01:37;;;;;;;60.37;3.50;;;;;;;;;;5063111;28;20482;-68
2022/09/25 14:04:12;;;;;;;58.67;3.50;;;;;;;;;;5075008;28;20467;-65
2022/09/25 14:06:40;;;;;;;60.47;3.53;;;;;;;;;;5074778;28;20540;-65
2022/09/25 14:09:09;;;;;;;59.77;4.10;;;;;;;;;;5074792;28;20509;-65
2022/09/25 14:11:38;;;;;;;58.67;3.70;;;;;;;;;;5074809;28;20940;-65
2022/09/25 14:14:08;;;;;;;60.03;3.90;;;;;;;;;;5074665;28;20587;-64
2022/09/25 14:16:37;;;;;;;60.63;3.90;;;;;;;;;;5074778;28;20455;-65
2022/09/25 14:19:07;;;;;;;59.80;3.90;;;;;;;;;;5074403;28;20454;-67
2022/09/25 14:21:34;;;;;;;59.70;4.57;;;;;;;;;;5074885;28;20542;-64
2022/09/25 14:24:14;;;;;;;58.70;3.50;;;;;;;;;;5074811;28;20469;-65
2022/09/25 14:26:46;;;;;;;60.77;4.20;;;;;;;;;;5074672;28;20543;-65
2022/09/25 14:29:16;;;;;;;59.80;4.13;;;;;;;;;;5074321;28;20593;-65
2022/09/25 14:31:49;;;;;;;58.70;3.63;;;;;;;;;;5074441;28;20935;-64
2022/09/25 14:34:22;;;;;;;58.97;3.70;;;;;;;;;;5074260;28;21060;-65
2022/09/25 14:36:59;;;;;;;60.43;3.63;;;;;;;;;;5074600;28;20451;-65
2022/09/25 14:39:30;;;;;;;59.47;3.70;;;;;;;;;;5074024;28;20450;-65
2022/09/25 14:42:16;;;;;;;58.97;3.87;;;;;;;;;;5074068;28;20538;-65
2022/09/25 14:44:56;;;;;;;61.37;4.83;;;;;;;;;;5074290;28;20473;-65
2022/09/25 14:47:25;;;;;;;59.87;4.03;;;;;;;;;;5074270;28;20483;-65
2022/09/25 14:49:54;;;;;;;60.57;4.83;;;;;;;;;;5073765;28;20455;-64
2022/09/25 14:52:23;;;;;;;60.07;3.90;;;;;;;;;;5072728;28;20447;-67
2022/09/25 14:54:54;;;;;;;58.80;3.80;;;;;;;;;;5074282;28;20475;-64
2022/09/25 14:57:24;;;;;;;58.67;3.07;;;;;;;;;;5074058;28;20940;-65
2022/09/25 14:59:53;;;;;;;58.70;3.10;;;;;;;;;;5073560;28;20542;-65
2022/09/25 15:02:22;;;;;;;58.70;3.13;;;;;;;;;;5074475;28;20448;-65
2022/09/25 15:04:50;;;;;;;59.80;3.57;;;;;;;;;;5073793;28;20463;-67
2022/09/25 15:07:19;;;;;;;57.87;2.70;;;;;;;;;;5073696;28;20487;-65